sensor_id;sensor_type;location;lat;lon;timestamp;P1;durP1;ratioP1;P2;durP2;ratioP2
12910;SDS011;6523;49.758;6.120;2023-03-09T00:00:53;0.80;;;0.80;;
12910;SDS011;6523;49.758;6.120;2023-03-09T00:03:19;2.40;;;0.73;;
12910;SDS011;6523;49.758;6.120;2023-03-09T00:05:56;2.83;;;0.87;;
12910;SDS011;6523;49.758;6.120;2023-03-09T00:08:23;1.40;;;0.73;;
12910;SDS011;6523;49.758;6.120;2023-03-09T00:10:49;2.97;;;0.97;;
12910;SDS011;6523;49.758;6.120;2023-03-09T00:13:17;1.50;;;0.70;;
12910;SDS011;6523;49.758;6.120;2023-03-09T00:15:44;0.80;;;0.70;;
12910;SDS011;6523;49.758;6.120;2023-03-09T00:18:15;0.80;;;0.67;;
12910;SDS011;6523;49.758;6.120;2023-03-09T00:20:44;1.23;;;0.70;;
12910;SDS011;6523;49.758;6.120;2023-03-09T00:23:10;2.80;;;0.70;;
12910;SDS011;6523;49.758;6.120;2023-03-09T00:25:36;1.53;;;0.53;;
12910;SDS011;6523;49.758;6.120;2023-03-09T00:28:02;2.57;;;0.50;;
12910;SDS011;6523;49.758;6.120;2023-03-09T00:30:28;1.87;;;0.60;;
12910;SDS011;6523;49.758;6.120;2023-03-09T00:32:54;2.13;;;0.90;;
12910;SDS011;6523;49.758;6.120;2023-03-09T00:35:19;3.47;;;0.90;;
12910;SDS011;6523;49.758;6.120;2023-03-09T00:37:45;1.40;;;0.80;;
12910;SDS011;6523;49.758;6.120;2023-03-09T00:40:14;1.00;;;0.80;;
12910;SDS011;6523;49.758;6.120;2023-03-09T00:42:43;1.60;;;0.77;;
12910;SDS011;6523;49.758;6.120;2023-03-09T00:45:09;2.77;;;1.27;;
12910;SDS011;6523;49.758;6.120;2023-03-09T00:47:36;0.80;;;0.60;;
12910;SDS011;6523;49.758;6.120;2023-03-09T00:50:02;0.90;;;0.80;;
12910;SDS011;6523;49.758;6.120;2023-03-09T00:52:29;1.20;;;0.90;;
12910;SDS011;6523;49.758;6.120;2023-03-09T00:54:55;2.13;;;0.80;;
12910;SDS011;6523;49.758;6.120;2023-03-09T00:57:21;2.33;;;0.80;;
12910;SDS011;6523;49.758;6.120;2023-03-09T00:59:48;1.90;;;0.77;;
12910;SDS011;6523;49.758;6.120;2023-03-09T01:02:15;2.97;;;1.03;;
12910;SDS011;6523;49.758;6.120;2023-03-09T01:04:41;4.17;;;1.30;;
12910;SDS011;6523;49.758;6.120;2023-03-09T01:07:06;2.53;;;0.90;;
12910;SDS011;6523;49.758;6.120;2023-03-09T01:09:32;1.43;;;0.63;;
12910;SDS011;6523;49.758;6.120;2023-03-09T01:11:57;1.77;;;0.73;;
12910;SDS011;6523;49.758;6.120;2023-03-09T01:14:23;5.00;;;0.80;;
12910;SDS011;6523;49.758;6.120;2023-03-09T01:16:48;1.10;;;0.70;;
12910;SDS011;6523;49.758;6.120;2023-03-09T01:19:14;1.87;;;0.83;;
12910;SDS011;6523;49.758;6.120;2023-03-09T01:21:40;1.50;;;0.67;;
12910;SDS011;6523;49.758;6.120;2023-03-09T01:24:05;1.90;;;0.80;;
12910;SDS011;6523;49.758;6.120;2023-03-09T01:26:31;2.67;;;0.70;;
12910;SDS011;6523;49.758;6.120;2023-03-09T01:28:56;2.93;;;0.80;;
12910;SDS011;6523;49.758;6.120;2023-03-09T01:31:23;3.90;;;0.83;;
12910;SDS011;6523;49.758;6.120;2023-03-09T01:33:49;1.80;;;0.67;;
12910;SDS011;6523;49.758;6.120;2023-03-09T01:36:16;1.23;;;0.70;;
12910;SDS011;6523;49.758;6.120;2023-03-09T01:38:43;3.50;;;0.83;;
12910;SDS011;6523;49.758;6.120;2023-03-09T01:41:12;1.57;;;0.90;;
12910;SDS011;6523;49.758;6.120;2023-03-09T01:43:42;3.33;;;0.70;;
12910;SDS011;6523;49.758;6.120;2023-03-09T01:48:48;1.60;;;1.03;;
12910;SDS011;6523;49.758;6.120;2023-03-09T01:51:16;1.53;;;0.80;;
12910;SDS011;6523;49.758;6.120;2023-03-09T01:53:43;1.67;;;0.63;;
12910;SDS011;6523;49.758;6.120;2023-03-09T01:56:09;1.30;;;0.80;;
12910;SDS011;6523;49.758;6.120;2023-03-09T01:58:35;3.90;;;0.97;;
12910;SDS011;6523;49.758;6.120;2023-03-09T02:01:01;2.40;;;1.17;;
12910;SDS011;6523;49.758;6.120;2023-03-09T02:03:34;1.63;;;0.83;;
12910;SDS011;6523;49.758;6.120;2023-03-09T02:08:38;2.00;;;0.80;;
12910;SDS011;6523;49.758;6.120;2023-03-09T02:11:30;1.90;;;1.10;;
12910;SDS011;6523;49.758;6.120;2023-03-09T02:13:57;3.03;;;1.30;;
12910;SDS011;6523;49.758;6.120;2023-03-09T02:16:24;2.23;;;1.03;;
12910;SDS011;6523;49.758;6.120;2023-03-09T02:18:50;4.37;;;1.27;;
12910;SDS011;6523;49.758;6.120;2023-03-09T02:24:07;5.37;;;1.70;;
12910;SDS011;6523;49.758;6.120;2023-03-09T02:27:11;4.73;;;1.50;;
12910;SDS011;6523;49.758;6.120;2023-03-09T02:29:38;2.87;;;1.70;;
12910;SDS011;6523;49.758;6.120;2023-03-09T02:32:04;4.27;;;1.60;;
12910;SDS011;6523;49.758;6.120;2023-03-09T02:34:29;4.27;;;1.60;;
12910;SDS011;6523;49.758;6.120;2023-03-09T02:36:55;3.67;;;1.60;;
12910;SDS011;6523;49.758;6.120;2023-03-09T02:39:23;3.10;;;1.40;;
12910;SDS011;6523;49.758;6.120;2023-03-09T02:41:59;5.47;;;1.50;;
12910;SDS011;6523;49.758;6.120;2023-03-09T02:44:26;3.23;;;1.50;;
12910;SDS011;6523;49.758;6.120;2023-03-09T02:46:52;2.53;;;1.47;;
12910;SDS011;6523;49.758;6.120;2023-03-09T02:49:18;4.17;;;1.50;;
12910;SDS011;6523;49.758;6.120;2023-03-09T02:51:43;5.43;;;1.47;;
12910;SDS011;6523;49.758;6.120;2023-03-09T02:54:09;3.53;;;1.40;;
12910;SDS011;6523;49.758;6.120;2023-03-09T02:56:34;4.73;;;1.60;;
12910;SDS011;6523;49.758;6.120;2023-03-09T02:59:00;5.73;;;2.10;;
12910;SDS011;6523;49.758;6.120;2023-03-09T03:01:27;7.27;;;2.10;;
12910;SDS011;6523;49.758;6.120;2023-03-09T03:03:53;5.80;;;2.00;;
12910;SDS011;6523;49.758;6.120;2023-03-09T03:06:19;4.97;;;1.97;;
12910;SDS011;6523;49.758;6.120;2023-03-09T03:08:44;6.40;;;2.00;;
12910;SDS011;6523;49.758;6.120;2023-03-09T03:11:10;5.57;;;2.37;;
12910;SDS011;6523;49.758;6.120;2023-03-09T03:13:36;5.87;;;2.03;;
12910;SDS011;6523;49.758;6.120;2023-03-09T03:16:01;3.47;;;1.60;;
12910;SDS011;6523;49.758;6.120;2023-03-09T03:18:28;8.43;;;2.60;;
12910;SDS011;6523;49.758;6.120;2023-03-09T03:20:54;5.43;;;2.50;;
12910;SDS011;6523;49.758;6.120;2023-03-09T03:23:20;7.10;;;2.10;;
12910;SDS011;6523;49.758;6.120;2023-03-09T03:25:46;10.33;;;2.57;;
12910;SDS011;6523;49.758;6.120;2023-03-09T03:28:11;9.90;;;2.60;;
12910;SDS011;6523;49.758;6.120;2023-03-09T03:30:37;7.40;;;2.33;;
12910;SDS011;6523;49.758;6.120;2023-03-09T03:33:03;9.17;;;2.50;;
12910;SDS011;6523;49.758;6.120;2023-03-09T03:35:28;7.13;;;2.60;;
12910;SDS011;6523;49.758;6.120;2023-03-09T03:37:54;10.23;;;2.90;;
12910;SDS011;6523;49.758;6.120;2023-03-09T03:40:20;12.80;;;2.73;;
12910;SDS011;6523;49.758;6.120;2023-03-09T03:42:45;11.50;;;2.73;;
12910;SDS011;6523;49.758;6.120;2023-03-09T03:45:11;9.20;;;2.40;;
12910;SDS011;6523;49.758;6.120;2023-03-09T03:47:37;13.33;;;2.87;;
12910;SDS011;6523;49.758;6.120;2023-03-09T03:50:02;9.20;;;2.80;;
12910;SDS011;6523;49.758;6.120;2023-03-09T03:52:29;9.37;;;3.00;;
12910;SDS011;6523;49.758;6.120;2023-03-09T03:54:54;13.73;;;3.50;;
12910;SDS011;6523;49.758;6.120;2023-03-09T03:57:20;13.17;;;2.90;;
12910;SDS011;6523;49.758;6.120;2023-03-09T03:59:47;8.10;;;2.40;;
12910;SDS011;6523;49.758;6.120;2023-03-09T04:02:14;11.83;;;2.77;;
12910;SDS011;6523;49.758;6.120;2023-03-09T04:04:40;7.97;;;3.23;;
12910;SDS011;6523;49.758;6.120;2023-03-09T04:07:05;14.00;;;2.77;;
12910;SDS011;6523;49.758;6.120;2023-03-09T04:09:31;10.80;;;3.30;;
12910;SDS011;6523;49.758;6.120;2023-03-09T04:11:57;10.40;;;2.97;;
12910;SDS011;6523;49.758;6.120;2023-03-09T04:14:23;11.27;;;3.40;;
12910;SDS011;6523;49.758;6.120;2023-03-09T04:16:48;7.80;;;2.67;;
12910;SDS011;6523;49.758;6.120;2023-03-09T04:19:14;11.43;;;2.73;;
12910;SDS011;6523;49.758;6.120;2023-03-09T04:21:39;10.73;;;3.77;;
12910;SDS011;6523;49.758;6.120;2023-03-09T04:24:05;7.70;;;3.70;;
12910;SDS011;6523;49.758;6.120;2023-03-09T04:26:30;7.77;;;2.97;;
12910;SDS011;6523;49.758;6.120;2023-03-09T04:28:56;6.60;;;3.00;;
12910;SDS011;6523;49.758;6.120;2023-03-09T04:31:22;9.10;;;3.20;;
12910;SDS011;6523;49.758;6.120;2023-03-09T04:33:47;6.97;;;2.80;;
12910;SDS011;6523;49.758;6.120;2023-03-09T04:36:13;11.07;;;3.10;;
12910;SDS011;6523;49.758;6.120;2023-03-09T04:38:38;9.43;;;2.67;;
12910;SDS011;6523;49.758;6.120;2023-03-09T04:41:04;10.00;;;3.23;;
12910;SDS011;6523;49.758;6.120;2023-03-09T04:43:30;9.07;;;3.33;;
12910;SDS011;6523;49.758;6.120;2023-03-09T04:45:56;9.07;;;2.77;;
12910;SDS011;6523;49.758;6.120;2023-03-09T04:48:22;4.83;;;2.50;;
12910;SDS011;6523;49.758;6.120;2023-03-09T04:50:47;4.43;;;2.30;;
12910;SDS011;6523;49.758;6.120;2023-03-09T04:53:13;4.57;;;1.80;;
12910;SDS011;6523;49.758;6.120;2023-03-09T04:55:38;5.10;;;2.20;;
12910;SDS011;6523;49.758;6.120;2023-03-09T04:58:04;6.37;;;2.63;;
12910;SDS011;6523;49.758;6.120;2023-03-09T05:00:30;2.50;;;1.70;;
12910;SDS011;6523;49.758;6.120;2023-03-09T05:02:57;3.50;;;2.03;;
12910;SDS011;6523;49.758;6.120;2023-03-09T05:05:23;5.13;;;1.70;;
12910;SDS011;6523;49.758;6.120;2023-03-09T05:07:49;6.07;;;2.30;;
12910;SDS011;6523;49.758;6.120;2023-03-09T05:10:14;6.03;;;2.13;;
12910;SDS011;6523;49.758;6.120;2023-03-09T05:12:40;6.20;;;2.43;;
12910;SDS011;6523;49.758;6.120;2023-03-09T05:15:07;3.57;;;1.90;;
12910;SDS011;6523;49.758;6.120;2023-03-09T05:17:33;5.90;;;1.70;;
12910;SDS011;6523;49.758;6.120;2023-03-09T05:19:58;4.77;;;1.80;;
12910;SDS011;6523;49.758;6.120;2023-03-09T05:22:24;2.43;;;1.40;;
12910;SDS011;6523;49.758;6.120;2023-03-09T05:24:50;4.53;;;1.53;;
12910;SDS011;6523;49.758;6.120;2023-03-09T05:27:15;6.23;;;1.83;;
12910;SDS011;6523;49.758;6.120;2023-03-09T05:29:41;3.37;;;1.77;;
12910;SDS011;6523;49.758;6.120;2023-03-09T05:32:06;4.03;;;1.50;;
12910;SDS011;6523;49.758;6.120;2023-03-09T05:34:32;4.90;;;1.70;;
12910;SDS011;6523;49.758;6.120;2023-03-09T05:36:58;2.50;;;1.50;;
12910;SDS011;6523;49.758;6.120;2023-03-09T05:39:24;4.77;;;1.57;;
12910;SDS011;6523;49.758;6.120;2023-03-09T05:41:49;6.50;;;1.90;;
12910;SDS011;6523;49.758;6.120;2023-03-09T05:44:15;5.73;;;1.80;;
12910;SDS011;6523;49.758;6.120;2023-03-09T05:46:41;1.67;;;1.40;;
12910;SDS011;6523;49.758;6.120;2023-03-09T05:49:06;3.10;;;1.70;;
12910;SDS011;6523;49.758;6.120;2023-03-09T05:51:32;5.67;;;2.00;;
12910;SDS011;6523;49.758;6.120;2023-03-09T05:53:58;3.50;;;1.67;;
12910;SDS011;6523;49.758;6.120;2023-03-09T05:56:23;2.70;;;1.50;;
12910;SDS011;6523;49.758;6.120;2023-03-09T05:58:49;2.13;;;1.30;;
12910;SDS011;6523;49.758;6.120;2023-03-09T06:01:21;1.57;;;1.37;;
12910;SDS011;6523;49.758;6.120;2023-03-09T06:03:51;2.97;;;1.50;;
12910;SDS011;6523;49.758;6.120;2023-03-09T06:06:18;4.20;;;1.87;;
12910;SDS011;6523;49.758;6.120;2023-03-09T06:08:44;3.80;;;1.40;;
12910;SDS011;6523;49.758;6.120;2023-03-09T06:11:10;3.73;;;1.30;;
12910;SDS011;6523;49.758;6.120;2023-03-09T06:13:36;2.43;;;1.17;;
12910;SDS011;6523;49.758;6.120;2023-03-09T06:16:03;5.00;;;1.50;;
12910;SDS011;6523;49.758;6.120;2023-03-09T06:18:29;7.00;;;2.10;;
12910;SDS011;6523;49.758;6.120;2023-03-09T06:20:58;3.93;;;1.37;;
12910;SDS011;6523;49.758;6.120;2023-03-09T06:23:25;5.60;;;2.33;;
12910;SDS011;6523;49.758;6.120;2023-03-09T06:25:50;3.17;;;2.00;;
12910;SDS011;6523;49.758;6.120;2023-03-09T06:28:17;5.33;;;1.90;;
12910;SDS011;6523;49.758;6.120;2023-03-09T06:30:43;7.33;;;1.90;;
12910;SDS011;6523;49.758;6.120;2023-03-09T06:33:08;6.17;;;1.70;;
12910;SDS011;6523;49.758;6.120;2023-03-09T06:35:34;6.23;;;2.20;;
12910;SDS011;6523;49.758;6.120;2023-03-09T06:38:00;6.03;;;2.00;;
12910;SDS011;6523;49.758;6.120;2023-03-09T06:40:27;7.20;;;2.27;;
12910;SDS011;6523;49.758;6.120;2023-03-09T06:42:53;4.60;;;1.90;;
12910;SDS011;6523;49.758;6.120;2023-03-09T06:45:18;8.67;;;2.07;;
12910;SDS011;6523;49.758;6.120;2023-03-09T06:47:46;2.87;;;1.70;;
12910;SDS011;6523;49.758;6.120;2023-03-09T06:50:12;6.87;;;2.47;;
12910;SDS011;6523;49.758;6.120;2023-03-09T06:52:38;4.90;;;1.70;;
12910;SDS011;6523;49.758;6.120;2023-03-09T06:55:04;7.23;;;2.23;;
12910;SDS011;6523;49.758;6.120;2023-03-09T06:57:30;5.87;;;2.00;;
12910;SDS011;6523;49.758;6.120;2023-03-09T06:59:55;11.73;;;2.10;;
12910;SDS011;6523;49.758;6.120;2023-03-09T07:02:21;6.20;;;2.20;;
12910;SDS011;6523;49.758;6.120;2023-03-09T07:04:46;6.63;;;1.90;;
12910;SDS011;6523;49.758;6.120;2023-03-09T07:07:12;5.53;;;1.70;;
12910;SDS011;6523;49.758;6.120;2023-03-09T07:09:37;4.27;;;1.90;;
12910;SDS011;6523;49.758;6.120;2023-03-09T07:12:03;6.13;;;1.70;;
12910;SDS011;6523;49.758;6.120;2023-03-09T07:14:29;5.23;;;1.87;;
12910;SDS011;6523;49.758;6.120;2023-03-09T07:16:55;2.63;;;1.30;;
12910;SDS011;6523;49.758;6.120;2023-03-09T07:19:21;7.23;;;1.90;;
12910;SDS011;6523;49.758;6.120;2023-03-09T07:21:48;3.37;;;1.30;;
12910;SDS011;6523;49.758;6.120;2023-03-09T07:24:14;6.20;;;2.13;;
12910;SDS011;6523;49.758;6.120;2023-03-09T07:26:40;4.33;;;1.60;;
12910;SDS011;6523;49.758;6.120;2023-03-09T07:29:06;5.53;;;2.20;;
12910;SDS011;6523;49.758;6.120;2023-03-09T07:31:31;6.57;;;1.60;;
12910;SDS011;6523;49.758;6.120;2023-03-09T07:33:58;7.07;;;2.27;;
12910;SDS011;6523;49.758;6.120;2023-03-09T07:36:24;5.47;;;1.90;;
12910;SDS011;6523;49.758;6.120;2023-03-09T07:38:50;6.80;;;2.03;;
12910;SDS011;6523;49.758;6.120;2023-03-09T07:41:16;9.63;;;1.80;;
12910;SDS011;6523;49.758;6.120;2023-03-09T07:43:42;6.93;;;2.00;;
12910;SDS011;6523;49.758;6.120;2023-03-09T07:46:12;5.47;;;2.17;;
12910;SDS011;6523;49.758;6.120;2023-03-09T07:48:40;10.33;;;2.60;;
12910;SDS011;6523;49.758;6.120;2023-03-09T07:51:08;6.03;;;1.93;;
12910;SDS011;6523;49.758;6.120;2023-03-09T07:53:34;7.87;;;2.57;;
12910;SDS011;6523;49.758;6.120;2023-03-09T07:56:02;5.53;;;1.70;;
12910;SDS011;6523;49.758;6.120;2023-03-09T07:58:32;8.00;;;2.40;;
12910;SDS011;6523;49.758;6.120;2023-03-09T08:00:59;9.63;;;2.07;;
12910;SDS011;6523;49.758;6.120;2023-03-09T08:03:25;7.10;;;2.40;;
12910;SDS011;6523;49.758;6.120;2023-03-09T08:05:51;5.30;;;1.83;;
12910;SDS011;6523;49.758;6.120;2023-03-09T08:08:20;10.13;;;2.60;;
12910;SDS011;6523;49.758;6.120;2023-03-09T08:10:50;10.50;;;1.77;;
12910;SDS011;6523;49.758;6.120;2023-03-09T08:13:17;6.53;;;2.27;;
12910;SDS011;6523;49.758;6.120;2023-03-09T08:15:43;8.40;;;2.47;;
12910;SDS011;6523;49.758;6.120;2023-03-09T08:18:09;8.33;;;2.00;;
12910;SDS011;6523;49.758;6.120;2023-03-09T08:20:34;7.80;;;1.87;;
12910;SDS011;6523;49.758;6.120;2023-03-09T08:23:01;8.23;;;2.13;;
12910;SDS011;6523;49.758;6.120;2023-03-09T08:25:28;6.37;;;1.97;;
12910;SDS011;6523;49.758;6.120;2023-03-09T08:27:54;8.17;;;2.50;;
12910;SDS011;6523;49.758;6.120;2023-03-09T08:30:20;8.20;;;2.50;;
12910;SDS011;6523;49.758;6.120;2023-03-09T08:32:47;8.47;;;2.27;;
12910;SDS011;6523;49.758;6.120;2023-03-09T08:35:15;7.03;;;2.00;;
12910;SDS011;6523;49.758;6.120;2023-03-09T08:37:41;8.20;;;2.23;;
12910;SDS011;6523;49.758;6.120;2023-03-09T08:40:07;8.00;;;2.27;;
12910;SDS011;6523;49.758;6.120;2023-03-09T08:42:33;7.70;;;2.17;;
12910;SDS011;6523;49.758;6.120;2023-03-09T08:44:59;13.63;;;2.30;;
12910;SDS011;6523;49.758;6.120;2023-03-09T08:47:25;7.47;;;2.63;;
12910;SDS011;6523;49.758;6.120;2023-03-09T08:49:51;4.30;;;1.97;;
12910;SDS011;6523;49.758;6.120;2023-03-09T08:52:16;9.07;;;2.10;;
12910;SDS011;6523;49.758;6.120;2023-03-09T08:54:42;6.33;;;1.93;;
12910;SDS011;6523;49.758;6.120;2023-03-09T08:57:07;7.20;;;2.03;;
12910;SDS011;6523;49.758;6.120;2023-03-09T08:59:33;5.37;;;1.87;;
12910;SDS011;6523;49.758;6.120;2023-03-09T09:01:59;4.07;;;1.70;;
12910;SDS011;6523;49.758;6.120;2023-03-09T09:04:25;5.57;;;1.77;;
12910;SDS011;6523;49.758;6.120;2023-03-09T09:06:51;8.23;;;1.70;;
12910;SDS011;6523;49.758;6.120;2023-03-09T09:09:17;7.27;;;2.13;;
12910;SDS011;6523;49.758;6.120;2023-03-09T09:11:42;6.93;;;1.97;;
12910;SDS011;6523;49.758;6.120;2023-03-09T09:14:08;8.87;;;2.30;;
12910;SDS011;6523;49.758;6.120;2023-03-09T09:16:34;9.17;;;2.33;;
12910;SDS011;6523;49.758;6.120;2023-03-09T09:18:59;9.77;;;1.90;;
12910;SDS011;6523;49.758;6.120;2023-03-09T09:21:25;6.87;;;2.33;;
12910;SDS011;6523;49.758;6.120;2023-03-09T09:23:53;12.17;;;2.90;;
12910;SDS011;6523;49.758;6.120;2023-03-09T09:26:18;7.70;;;2.03;;
12910;SDS011;6523;49.758;6.120;2023-03-09T09:28:45;7.47;;;2.23;;
12910;SDS011;6523;49.758;6.120;2023-03-09T09:31:14;8.60;;;2.30;;
12910;SDS011;6523;49.758;6.120;2023-03-09T09:33:42;11.60;;;2.60;;
12910;SDS011;6523;49.758;6.120;2023-03-09T09:36:10;7.87;;;2.20;;
12910;SDS011;6523;49.758;6.120;2023-03-09T09:38:38;7.70;;;2.80;;
12910;SDS011;6523;49.758;6.120;2023-03-09T09:41:06;11.63;;;2.37;;
12910;SDS011;6523;49.758;6.120;2023-03-09T09:43:33;12.17;;;2.73;;
12910;SDS011;6523;49.758;6.120;2023-03-09T09:45:59;5.13;;;2.20;;
12910;SDS011;6523;49.758;6.120;2023-03-09T09:48:28;9.30;;;2.30;;
12910;SDS011;6523;49.758;6.120;2023-03-09T09:53:37;9.57;;;2.27;;
12910;SDS011;6523;49.758;6.120;2023-03-09T09:56:28;10.97;;;2.83;;
12910;SDS011;6523;49.758;6.120;2023-03-09T09:59:05;9.80;;;2.60;;
12910;SDS011;6523;49.758;6.120;2023-03-09T10:07:17;8.60;;;2.80;;
12910;SDS011;6523;49.758;6.120;2023-03-09T10:09:47;7.43;;;2.13;;
12910;SDS011;6523;49.758;6.120;2023-03-09T10:12:17;10.23;;;3.23;;
12910;SDS011;6523;49.758;6.120;2023-03-09T10:14:52;8.43;;;2.50;;
12910;SDS011;6523;49.758;6.120;2023-03-09T10:17:43;10.43;;;2.20;;
12910;SDS011;6523;49.758;6.120;2023-03-09T10:20:34;8.67;;;2.87;;
12910;SDS011;6523;49.758;6.120;2023-03-09T10:23:06;11.50;;;2.80;;
12910;SDS011;6523;49.758;6.120;2023-03-09T10:25:57;9.33;;;2.37;;
12910;SDS011;6523;49.758;6.120;2023-03-09T10:28:39;7.73;;;2.73;;
12910;SDS011;6523;49.758;6.120;2023-03-09T10:31:18;8.90;;;2.40;;
12910;SDS011;6523;49.758;6.120;2023-03-09T10:34:22;9.47;;;1.80;;
12910;SDS011;6523;49.758;6.120;2023-03-09T10:36:59;8.10;;;2.43;;
12910;SDS011;6523;49.758;6.120;2023-03-09T10:39:31;9.00;;;2.10;;
12910;SDS011;6523;49.758;6.120;2023-03-09T10:42:28;12.40;;;3.03;;
12910;SDS011;6523;49.758;6.120;2023-03-09T10:44:59;13.43;;;3.13;;
12910;SDS011;6523;49.758;6.120;2023-03-09T10:50:16;12.57;;;2.70;;
12910;SDS011;6523;49.758;6.120;2023-03-09T10:52:42;10.43;;;2.97;;
12910;SDS011;6523;49.758;6.120;2023-03-09T10:57:55;8.60;;;2.30;;
12910;SDS011;6523;49.758;6.120;2023-03-09T11:00:25;10.77;;;2.50;;
12910;SDS011;6523;49.758;6.120;2023-03-09T11:03:00;8.27;;;3.33;;
12910;SDS011;6523;49.758;6.120;2023-03-09T11:05:28;9.17;;;2.77;;
12910;SDS011;6523;49.758;6.120;2023-03-09T11:07:59;12.97;;;2.47;;
12910;SDS011;6523;49.758;6.120;2023-03-09T11:10:31;10.83;;;2.90;;
12910;SDS011;6523;49.758;6.120;2023-03-09T11:12:59;9.03;;;2.00;;
12910;SDS011;6523;49.758;6.120;2023-03-09T11:15:30;6.90;;;2.43;;
12910;SDS011;6523;49.758;6.120;2023-03-09T11:18:00;7.27;;;2.20;;
12910;SDS011;6523;49.758;6.120;2023-03-09T11:20:31;7.40;;;2.70;;
12910;SDS011;6523;49.758;6.120;2023-03-09T11:26:00;10.23;;;2.23;;
12910;SDS011;6523;49.758;6.120;2023-03-09T11:28:29;9.77;;;2.77;;
12910;SDS011;6523;49.758;6.120;2023-03-09T11:31:10;7.83;;;2.07;;
12910;SDS011;6523;49.758;6.120;2023-03-09T11:33:41;10.90;;;3.03;;
12910;SDS011;6523;49.758;6.120;2023-03-09T11:36:09;4.37;;;1.60;;
12910;SDS011;6523;49.758;6.120;2023-03-09T11:38:38;8.90;;;1.93;;
12910;SDS011;6523;49.758;6.120;2023-03-09T11:41:17;8.13;;;2.27;;
12910;SDS011;6523;49.758;6.120;2023-03-09T11:43:56;5.60;;;1.53;;
12910;SDS011;6523;49.758;6.120;2023-03-09T11:46:46;5.80;;;2.17;;
12910;SDS011;6523;49.758;6.120;2023-03-09T11:49:15;8.47;;;2.00;;
12910;SDS011;6523;49.758;6.120;2023-03-09T11:51:49;9.90;;;2.37;;
12910;SDS011;6523;49.758;6.120;2023-03-09T11:54:17;7.70;;;2.27;;
12910;SDS011;6523;49.758;6.120;2023-03-09T11:57:02;4.10;;;1.83;;
12910;SDS011;6523;49.758;6.120;2023-03-09T11:59:43;5.27;;;2.07;;
12910;SDS011;6523;49.758;6.120;2023-03-09T12:04:50;5.90;;;2.47;;
12910;SDS011;6523;49.758;6.120;2023-03-09T12:07:34;9.53;;;2.40;;
12910;SDS011;6523;49.758;6.120;2023-03-09T12:10:25;9.83;;;2.70;;
12910;SDS011;6523;49.758;6.120;2023-03-09T12:13:09;11.33;;;3.00;;
12910;SDS011;6523;49.758;6.120;2023-03-09T12:18:17;9.83;;;2.70;;
12910;SDS011;6523;49.758;6.120;2023-03-09T12:20:55;8.70;;;3.17;;
12910;SDS011;6523;49.758;6.120;2023-03-09T12:26:02;14.20;;;3.43;;
12910;SDS011;6523;49.758;6.120;2023-03-09T12:28:31;12.17;;;3.43;;
12910;SDS011;6523;49.758;6.120;2023-03-09T12:30:59;13.57;;;3.33;;
12910;SDS011;6523;49.758;6.120;2023-03-09T12:36:20;12.37;;;2.80;;
12910;SDS011;6523;49.758;6.120;2023-03-09T12:42:36;11.63;;;3.43;;
12910;SDS011;6523;49.758;6.120;2023-03-09T12:50:00;18.47;;;3.53;;
12910;SDS011;6523;49.758;6.120;2023-03-09T12:55:17;21.43;;;4.60;;
12910;SDS011;6523;49.758;6.120;2023-03-09T12:57:44;13.27;;;3.30;;
12910;SDS011;6523;49.758;6.120;2023-03-09T13:00:33;11.83;;;2.93;;
12910;SDS011;6523;49.758;6.120;2023-03-09T13:03:04;11.37;;;2.93;;
12910;SDS011;6523;49.758;6.120;2023-03-09T13:05:39;8.40;;;2.80;;
12910;SDS011;6523;49.758;6.120;2023-03-09T13:08:20;17.00;;;3.23;;
12910;SDS011;6523;49.758;6.120;2023-03-09T13:10:47;14.00;;;3.37;;
12910;SDS011;6523;49.758;6.120;2023-03-09T13:21:41;10.93;;;2.90;;
12910;SDS011;6523;49.758;6.120;2023-03-09T13:24:15;13.23;;;2.90;;
12910;SDS011;6523;49.758;6.120;2023-03-09T13:26:44;14.03;;;3.40;;
12910;SDS011;6523;49.758;6.120;2023-03-09T13:29:15;12.50;;;3.27;;
12910;SDS011;6523;49.758;6.120;2023-03-09T13:31:44;12.67;;;3.40;;
12910;SDS011;6523;49.758;6.120;2023-03-09T13:34:18;13.83;;;3.30;;
12910;SDS011;6523;49.758;6.120;2023-03-09T13:36:44;11.83;;;3.07;;
12910;SDS011;6523;49.758;6.120;2023-03-09T13:39:15;14.33;;;3.67;;
12910;SDS011;6523;49.758;6.120;2023-03-09T13:41:43;22.40;;;3.60;;
12910;SDS011;6523;49.758;6.120;2023-03-09T13:44:12;12.63;;;3.43;;
12910;SDS011;6523;49.758;6.120;2023-03-09T13:46:40;13.93;;;3.50;;
12910;SDS011;6523;49.758;6.120;2023-03-09T13:52:16;8.43;;;2.73;;
12910;SDS011;6523;49.758;6.120;2023-03-09T13:54:47;10.23;;;3.57;;
12910;SDS011;6523;49.758;6.120;2023-03-09T13:57:19;15.40;;;3.97;;
12910;SDS011;6523;49.758;6.120;2023-03-09T13:59:51;11.33;;;2.90;;
12910;SDS011;6523;49.758;6.120;2023-03-09T14:02:23;18.07;;;3.77;;
12910;SDS011;6523;49.758;6.120;2023-03-09T14:05:36;10.30;;;2.73;;
12910;SDS011;6523;49.758;6.120;2023-03-09T14:07:43;12.23;;;3.10;;
12910;SDS011;6523;49.758;6.120;2023-03-09T14:10:53;12.17;;;2.90;;
12910;SDS011;6523;49.758;6.120;2023-03-09T14:15:41;12.73;;;3.03;;
12910;SDS011;6523;49.758;6.120;2023-03-09T14:20:58;11.47;;;2.93;;
12910;SDS011;6523;49.758;6.120;2023-03-09T14:23:38;10.27;;;2.67;;
12910;SDS011;6523;49.758;6.120;2023-03-09T14:26:05;12.40;;;2.57;;
12910;SDS011;6523;49.758;6.120;2023-03-09T14:28:34;10.30;;;3.20;;
12910;SDS011;6523;49.758;6.120;2023-03-09T14:31:13;9.33;;;2.90;;
12910;SDS011;6523;49.758;6.120;2023-03-09T14:36:47;12.77;;;2.97;;
12910;SDS011;6523;49.758;6.120;2023-03-09T14:42:03;12.13;;;3.53;;
12910;SDS011;6523;49.758;6.120;2023-03-09T14:47:40;13.10;;;2.97;;
12910;SDS011;6523;49.758;6.120;2023-03-09T14:50:06;12.63;;;2.77;;
12910;SDS011;6523;49.758;6.120;2023-03-09T14:52:37;14.03;;;3.27;;
12910;SDS011;6523;49.758;6.120;2023-03-09T14:55:18;13.10;;;3.30;;
12910;SDS011;6523;49.758;6.120;2023-03-09T14:57:47;14.33;;;3.90;;
12910;SDS011;6523;49.758;6.120;2023-03-09T15:00:17;15.73;;;3.87;;
12910;SDS011;6523;49.758;6.120;2023-03-09T15:02:45;12.20;;;3.23;;
12910;SDS011;6523;49.758;6.120;2023-03-09T15:05:12;16.07;;;2.63;;
12910;SDS011;6523;49.758;6.120;2023-03-09T15:07:39;13.70;;;2.90;;
12910;SDS011;6523;49.758;6.120;2023-03-09T15:10:05;13.20;;;3.83;;
12910;SDS011;6523;49.758;6.120;2023-03-09T15:12:30;15.87;;;3.60;;
12910;SDS011;6523;49.758;6.120;2023-03-09T15:14:56;16.10;;;3.10;;
12910;SDS011;6523;49.758;6.120;2023-03-09T15:17:22;14.10;;;3.47;;
12910;SDS011;6523;49.758;6.120;2023-03-09T15:19:48;10.10;;;3.17;;
12910;SDS011;6523;49.758;6.120;2023-03-09T15:22:15;12.07;;;3.13;;
12910;SDS011;6523;49.758;6.120;2023-03-09T15:24:44;14.50;;;3.30;;
12910;SDS011;6523;49.758;6.120;2023-03-09T15:27:10;13.93;;;3.20;;
12910;SDS011;6523;49.758;6.120;2023-03-09T15:29:37;13.50;;;3.37;;
12910;SDS011;6523;49.758;6.120;2023-03-09T15:32:03;16.13;;;3.70;;
12910;SDS011;6523;49.758;6.120;2023-03-09T15:34:33;13.73;;;3.93;;
12910;SDS011;6523;49.758;6.120;2023-03-09T15:36:59;20.97;;;3.67;;
12910;SDS011;6523;49.758;6.120;2023-03-09T15:39:25;13.50;;;3.33;;
12910;SDS011;6523;49.758;6.120;2023-03-09T15:41:51;14.77;;;3.10;;
12910;SDS011;6523;49.758;6.120;2023-03-09T15:44:16;11.10;;;2.77;;
12910;SDS011;6523;49.758;6.120;2023-03-09T15:46:42;11.70;;;3.60;;
12910;SDS011;6523;49.758;6.120;2023-03-09T15:49:08;10.90;;;3.17;;
12910;SDS011;6523;49.758;6.120;2023-03-09T15:51:34;13.03;;;3.37;;
12910;SDS011;6523;49.758;6.120;2023-03-09T15:54:03;14.30;;;3.30;;
12910;SDS011;6523;49.758;6.120;2023-03-09T15:56:30;13.83;;;3.27;;
12910;SDS011;6523;49.758;6.120;2023-03-09T15:58:56;14.37;;;3.30;;
12910;SDS011;6523;49.758;6.120;2023-03-09T16:01:21;32.00;;;6.03;;
12910;SDS011;6523;49.758;6.120;2023-03-09T16:03:48;11.10;;;3.40;;
12910;SDS011;6523;49.758;6.120;2023-03-09T16:06:17;11.37;;;2.90;;
12910;SDS011;6523;49.758;6.120;2023-03-09T16:08:44;18.83;;;8.07;;
12910;SDS011;6523;49.758;6.120;2023-03-09T16:11:10;14.63;;;4.77;;
12910;SDS011;6523;49.758;6.120;2023-03-09T16:13:36;13.27;;;3.63;;
12910;SDS011;6523;49.758;6.120;2023-03-09T16:16:02;16.63;;;3.50;;
12910;SDS011;6523;49.758;6.120;2023-03-09T16:18:27;8.53;;;2.53;;